Time;durP1;ratioP1;P1;durP2;ratioP2;P2;SDS_P1;SDS_P2;PMS_P1;PMS_P2;Temp;Humidity;BMP_temperature;BMP_pressure;BME280_temperature;BME280_humidity;BME280_pressure;Samples;Min_cycle;Max_cycle;Signal;HPM_P1;HPM_P2
2022/10/10 00:02:00;;;;;;;3.03;1.00;;;;;;;;;;5013794;28;20159;-65
2022/10/10 00:04:30;;;;;;;3.55;0.90;;;;;;;;;;5013672;28;20050;-65
2022/10/10 00:07:00;;;;;;;2.30;0.77;;;;;;;;;;5013964;28;20553;-64
2022/10/10 00:09:30;;;;;;;6.95;1.58;;;;;;;;;;5013649;28;20390;-64
2022/10/10 00:12:00;;;;;;;6.63;1.10;;;;;;;;;;4997537;28;20054;-65
2022/10/10 00:14:30;;;;;;;5.70;1.30;;;;;;;;;;4974132;28;20082;-65
2022/10/10 00:17:00;;;;;;;3.83;1.23;;;;;;;;;;4926832;28;20069;-65
2022/10/10 00:19:30;;;;;;;1.85;0.57;;;;;;;;;;4992513;28;20089;-65
2022/10/10 00:22:01;;;;;;;2.00;1.02;;;;;;;;;;5013404;28;20054;-65
2022/10/10 00:24:30;;;;;;;4.70;1.50;;;;;;;;;;5013509;28;20058;-65
2022/10/10 00:27:00;;;;;;;3.20;1.30;;;;;;;;;;5013224;28;20062;-65
2022/10/10 00:29:30;;;;;;;3.92;1.25;;;;;;;;;;4984354;28;20062;-65
2022/10/10 00:32:02;;;;;;;3.90;1.25;;;;;;;;;;4942059;28;20054;-64
2022/10/10 00:34:31;;;;;;;4.13;1.17;;;;;;;;;;4974036;28;20067;-65
2022/10/10 00:37:01;;;;;;;3.60;1.15;;;;;;;;;;4958427;28;20054;-64
2022/10/10 00:39:31;;;;;;;2.88;1.38;;;;;;;;;;4973996;28;20527;-65
2022/10/10 00:42:01;;;;;;;3.30;1.00;;;;;;;;;;4958604;28;20054;-65
2022/10/10 00:44:31;;;;;;;3.47;1.10;;;;;;;;;;4957842;28;20062;-64
2022/10/10 00:47:01;;;;;;;2.88;1.20;;;;;;;;;;4974174;28;20088;-64
2022/10/10 00:49:31;;;;;;;4.00;1.38;;;;;;;;;;4957897;28;20070;-64
2022/10/10 00:52:01;;;;;;;3.17;1.15;;;;;;;;;;4991568;28;20534;-65
2022/10/10 00:54:33;;;;;;;6.75;2.00;;;;;;;;;;5012639;28;20054;-66
2022/10/10 00:57:11;;;;;;;3.80;0.98;;;;;;;;;;4964364;28;20532;-64
2022/10/10 00:59:44;;;;;;;2.83;1.17;;;;;;;;;;5023263;28;20528;-64
2022/10/10 01:02:14;;;;;;;2.22;1.10;;;;;;;;;;4973516;28;20050;-62
2022/10/10 01:04:44;;;;;;;4.97;1.70;;;;;;;;;;4973613;28;20423;-62
2022/10/10 01:07:22;;;;;;;5.38;1.63;;;;;;;;;;5004800;28;20053;-62
2022/10/10 01:09:58;;;;;;;2.25;1.00;;;;;;;;;;5032294;28;20041;-64
2022/10/10 01:12:55;;;;;;;5.88;1.02;;;;;;;;;;4999352;28;20046;-65
2022/10/10 01:15:43;;;;;;;3.72;1.05;;;;;;;;;;5032404;28;20048;-64
2022/10/10 01:18:28;;;;;;;5.18;1.70;;;;;;;;;;5016031;28;20873;-66
2022/10/10 01:21:18;;;;;;;5.53;1.48;;;;;;;;;;5032040;28;20057;-65
2022/10/10 01:23:57;;;;;;;3.28;1.17;;;;;;;;;;5032255;28;20049;-65
2022/10/10 01:26:59;;;;;;;6.47;1.90;;;;;;;;;;5031949;28;20064;-65
2022/10/10 01:29:30;;;;;;;3.50;1.27;;;;;;;;;;5031891;28;20497;-65
2022/10/10 01:32:32;;;;;;;6.25;1.13;;;;;;;;;;5040851;28;20056;-65
2022/10/10 01:35:25;;;;;;;2.33;1.00;;;;;;;;;;5051764;28;20497;-65
2022/10/10 01:38:10;;;;;;;2.10;0.93;;;;;;;;;;5002657;28;20060;-65
2022/10/10 01:41:19;;;;;;;4.43;1.70;;;;;;;;;;5086987;28;20052;-65
2022/10/10 01:43:57;;;;;;;6.38;1.42;;;;;;;;;;5079546;28;20059;-64
2022/10/10 01:46:27;;;;;;;6.50;1.50;;;;;;;;;;5114769;28;20040;-65
2022/10/10 01:48:58;;;;;;;3.38;1.42;;;;;;;;;;5095605;28;20062;-65
2022/10/10 01:51:42;;;;;;;5.13;1.30;;;;;;;;;;5114607;28;20051;-66
2022/10/10 01:54:30;;;;;;;2.65;1.33;;;;;;;;;;5078503;28;20547;-63
2022/10/10 01:57:09;;;;;;;3.47;1.20;;;;;;;;;;5058396;28;20051;-62
2022/10/10 01:59:54;;;;;;;8.52;1.17;;;;;;;;;;5091664;28;20055;-61
2022/10/10 02:02:31;;;;;;;2.28;0.90;;;;;;;;;;5058076;28;20512;-65
2022/10/10 02:05:20;;;;;;;1.77;0.80;;;;;;;;;;5091554;28;20048;-62
2022/10/10 02:08:00;;;;;;;1.83;0.80;;;;;;;;;;5074855;28;20047;-61
2022/10/10 02:10:34;;;;;;;2.67;1.00;;;;;;;;;;5091158;28;20052;-61
2022/10/10 02:13:06;;;;;;;2.15;0.85;;;;;;;;;;5040694;28;20535;-65
2022/10/10 02:15:47;;;;;;;4.75;1.58;;;;;;;;;;5057494;28;20059;-62
2022/10/10 02:18:22;;;;;;;2.67;1.13;;;;;;;;;;5056870;28;20144;-62
2022/10/10 02:20:54;;;;;;;4.38;1.10;;;;;;;;;;5091230;28;20055;-62
2022/10/10 02:23:25;;;;;;;3.70;1.00;;;;;;;;;;5091196;28;20111;-62
2022/10/10 02:25:56;;;;;;;6.43;2.05;;;;;;;;;;5090936;28;20492;-63
2022/10/10 02:28:50;;;;;;;1.95;0.80;;;;;;;;;;5105150;28;20051;-62
2022/10/10 02:31:41;;;;;;;3.35;0.98;;;;;;;;;;5113744;28;20040;-62
2022/10/10 02:34:26;;;;;;;3.78;1.42;;;;;;;;;;5077591;28;20048;-62
2022/10/10 02:37:00;;;;;;;2.92;1.00;;;;;;;;;;5060983;28;20063;-63
2022/10/10 02:39:35;;;;;;;2.47;0.98;;;;;;;;;;5077861;28;20048;-63
2022/10/10 02:42:07;;;;;;;2.47;0.90;;;;;;;;;;5113254;28;20040;-64
2022/10/10 02:44:38;;;;;;;2.15;0.65;;;;;;;;;;5077811;28;20056;-65
2022/10/10 02:47:08;;;;;;;1.98;0.90;;;;;;;;;;5113642;28;20043;-65
2022/10/10 02:49:39;;;;;;;2.25;1.25;;;;;;;;;;5113592;28;20471;-64
2022/10/10 02:52:12;;;;;;;2.30;0.85;;;;;;;;;;5113486;28;20051;-64
2022/10/10 02:54:42;;;;;;;3.22;0.93;;;;;;;;;;5053329;28;20511;-65
2022/10/10 02:57:12;;;;;;;1.90;0.82;;;;;;;;;;5054046;28;20428;-65
2022/10/10 02:59:42;;;;;;;2.42;1.23;;;;;;;;;;5070333;28;20437;-63
2022/10/10 03:02:12;;;;;;;2.40;0.90;;;;;;;;;;5070261;28;20484;-64
2022/10/10 03:04:43;;;;;;;1.58;0.80;;;;;;;;;;5070270;28;20055;-64
2022/10/10 03:07:14;;;;;;;4.60;1.02;;;;;;;;;;5070292;28;20079;-64
2022/10/10 03:09:43;;;;;;;1.83;0.77;;;;;;;;;;5070160;28;20048;-64
2022/10/10 03:12:14;;;;;;;1.83;1.00;;;;;;;;;;5070159;28;20064;-63
2022/10/10 03:14:45;;;;;;;2.58;1.10;;;;;;;;;;5070119;28;20037;-63
2022/10/10 03:17:16;;;;;;;1.42;0.73;;;;;;;;;;5070421;28;20045;-64
2022/10/10 03:19:45;;;;;;;1.92;1.02;;;;;;;;;;5070001;28;20060;-64
2022/10/10 03:22:15;;;;;;;4.63;1.10;;;;;;;;;;5070189;28;20045;-63
2022/10/10 03:24:45;;;;;;;7.95;1.35;;;;;;;;;;5053187;28;20052;-64
2022/10/10 03:27:16;;;;;;;3.30;1.20;;;;;;;;;;5069835;28;20535;-64
2022/10/10 03:29:45;;;;;;;2.42;1.13;;;;;;;;;;5036978;28;20056;-63
2022/10/10 03:32:16;;;;;;;4.57;1.13;;;;;;;;;;5079795;28;20079;-63
2022/10/10 03:34:45;;;;;;;3.42;1.33;;;;;;;;;;5072866;28;20055;-63
2022/10/10 03:37:16;;;;;;;5.07;1.63;;;;;;;;;;5056502;28;20048;-64
2022/10/10 03:39:46;;;;;;;4.90;1.92;;;;;;;;;;5089973;28;20052;-64
2022/10/10 03:42:16;;;;;;;5.00;2.03;;;;;;;;;;5089928;28;20060;-63
2022/10/10 03:44:47;;;;;;;4.03;2.00;;;;;;;;;;5052551;28;20566;-63
2022/10/10 03:47:17;;;;;;;5.20;1.85;;;;;;;;;;5036351;28;20056;-63
2022/10/10 03:49:47;;;;;;;6.05;1.40;;;;;;;;;;5069622;28;20086;-63
2022/10/10 03:52:17;;;;;;;4.72;1.65;;;;;;;;;;5069956;28;20137;-63
2022/10/10 03:54:47;;;;;;;6.50;2.60;;;;;;;;;;5036088;28;20067;-63
2022/10/10 03:57:17;;;;;;;7.20;2.53;;;;;;;;;;5020850;28;20060;-65
2022/10/10 03:59:47;;;;;;;6.72;2.33;;;;;;;;;;5004032;28;20487;-63
2022/10/10 04:02:17;;;;;;;6.43;2.47;;;;;;;;;;5036200;28;20071;-62
2022/10/10 04:04:47;;;;;;;7.05;2.53;;;;;;;;;;5069515;28;20057;-63
2022/10/10 04:07:17;;;;;;;6.05;2.45;;;;;;;;;;5035880;28;20049;-64
2022/10/10 04:09:47;;;;;;;4.95;1.73;;;;;;;;;;5069602;28;20053;-64
2022/10/10 04:12:16;;;;;;;3.10;1.50;;;;;;;;;;5069624;28;20056;-63
2022/10/10 04:14:46;;;;;;;3.92;1.45;;;;;;;;;;5070040;28;20044;-64
2022/10/10 04:17:16;;;;;;;2.53;1.10;;;;;;;;;;5112606;28;20051;-64
2022/10/10 04:19:46;;;;;;;9.93;1.52;;;;;;;;;;5112076;28;20415;-65
2022/10/10 04:22:16;;;;;;;8.27;2.03;;;;;;;;;;5112513;28;20040;-64
2022/10/10 04:24:46;;;;;;;8.25;2.45;;;;;;;;;;5077038;28;20543;-61
2022/10/10 04:27:17;;;;;;;5.07;2.30;;;;;;;;;;5094565;28;20514;-62
2022/10/10 04:29:47;;;;;;;5.63;2.38;;;;;;;;;;5076490;28;20063;-62
2022/10/10 04:32:16;;;;;;;4.78;1.92;;;;;;;;;;5094773;28;20475;-63
2022/10/10 04:34:46;;;;;;;7.45;2.70;;;;;;;;;;5112046;28;20491;-63
2022/10/10 04:37:16;;;;;;;4.90;2.50;;;;;;;;;;5112449;28;20052;-63
2022/10/10 04:39:46;;;;;;;5.70;2.55;;;;;;;;;;5055650;28;20052;-64
2022/10/10 04:42:16;;;;;;;6.22;2.83;;;;;;;;;;5091426;28;20551;-64
2022/10/10 04:44:46;;;;;;;6.70;2.78;;;;;;;;;;5093213;28;20063;-64
2022/10/10 04:47:16;;;;;;;6.00;2.60;;;;;;;;;;5060320;28;20048;-64
2022/10/10 04:49:46;;;;;;;5.13;2.83;;;;;;;;;;5093109;28;20056;-63
2022/10/10 04:52:16;;;;;;;5.63;2.83;;;;;;;;;;5093097;28;20159;-63
2022/10/10 04:54:46;;;;;;;8.45;3.00;;;;;;;;;;5092920;28;20048;-63
2022/10/10 04:57:16;;;;;;;6.20;2.85;;;;;;;;;;5059262;28;20056;-63
2022/10/10 04:59:46;;;;;;;7.53;2.65;;;;;;;;;;5093105;28;20047;-63
2022/10/10 05:02:16;;;;;;;4.82;2.33;;;;;;;;;;5042486;28;20056;-64
2022/10/10 05:04:46;;;;;;;7.85;3.10;;;;;;;;;;5092971;28;20543;-63
2022/10/10 05:07:16;;;;;;;7.03;2.97;;;;;;;;;;5075804;28;20047;-63
2022/10/10 05:09:46;;;;;;;7.78;3.95;;;;;;;;;;5058655;28;20487;-63
2022/10/10 05:12:16;;;;;;;6.60;2.83;;;;;;;;;;5059270;28;20052;-63
2022/10/10 05:14:45;;;;;;;6.45;3.00;;;;;;;;;;5092750;28;20566;-63
2022/10/10 05:17:16;;;;;;;6.90;3.22;;;;;;;;;;5102545;28;20071;-63
2022/10/10 05:19:46;;;;;;;8.25;3.30;;;;;;;;;;5115341;28;20051;-65
2022/10/10 05:22:16;;;;;;;6.25;2.40;;;;;;;;;;5115136;28;20043;-64
2022/10/10 05:24:45;;;;;;;10.75;3.22;;;;;;;;;;5115005;28;20051;-64
2022/10/10 05:27:15;;;;;;;5.45;2.72;;;;;;;;;;5115352;28;20051;-64
2022/10/10 05:29:45;;;;;;;5.10;2.22;;;;;;;;;;5115139;28;20484;-64
2022/10/10 05:32:15;;;;;;;6.63;2.40;;;;;;;;;;5096912;28;20043;-64
2022/10/10 05:34:45;;;;;;;6.90;3.17;;;;;;;;;;5079155;28;20388;-64
2022/10/10 05:37:15;;;;;;;9.13;3.30;;;;;;;;;;5114646;28;20035;-63
2022/10/10 05:39:44;;;;;;;9.63;3.92;;;;;;;;;;5114964;28;20051;-66
2022/10/10 05:42:21;;;;;;;10.20;4.20;;;;;;;;;;5114535;28;20046;-61
2022/10/10 05:44:51;;;;;;;7.75;2.97;;;;;;;;;;5114692;28;20043;-63
2022/10/10 05:47:22;;;;;;;9.50;3.58;;;;;;;;;;5114622;28;20047;-62
2022/10/10 05:49:56;;;;;;;8.88;3.35;;;;;;;;;;5114387;28;20491;-63
2022/10/10 05:52:28;;;;;;;9.07;3.67;;;;;;;;;;5114516;28;20043;-64
2022/10/10 05:54:58;;;;;;;8.20;3.50;;;;;;;;;;5114264;28;20044;-64
2022/10/10 05:57:29;;;;;;;9.82;4.00;;;;;;;;;;5114449;28;20052;-64
2022/10/10 05:59:59;;;;;;;10.50;4.20;;;;;;;;;;5061910;28;20060;-64
2022/10/10 06:02:31;;;;;;;11.65;4.68;;;;;;;;;;5113920;28;20805;-63
2022/10/10 06:05:02;;;;;;;11.63;4.97;;;;;;;;;;5114475;28;20048;-63
2022/10/10 06:07:32;;;;;;;9.57;4.82;;;;;;;;;;5078267;28;20056;-63
2022/10/10 06:10:22;;;;;;;9.68;3.28;;;;;;;;;;5099617;28;20418;-63
2022/10/10 06:12:53;;;;;;;6.60;3.10;;;;;;;;;;5113881;28;20403;-64
2022/10/10 06:15:23;;;;;;;5.03;2.50;;;;;;;;;;5114093;28;20047;-64
2022/10/10 06:17:54;;;;;;;6.72;2.67;;;;;;;;;;5079029;28;20052;-65
2022/10/10 06:20:24;;;;;;;8.50;3.20;;;;;;;;;;5095803;28;20063;-62
2022/10/10 06:22:54;;;;;;;6.60;3.20;;;;;;;;;;5113768;28;20941;-61
2022/10/10 06:25:25;;;;;;;6.90;3.00;;;;;;;;;;5113661;28;20048;-62
2022/10/10 06:28:10;;;;;;;5.75;2.63;;;;;;;;;;5041655;28;20052;-62
2022/10/10 06:30:42;;;;;;;5.70;2.47;;;;;;;;;;5037481;28;20055;-63
2022/10/10 06:33:13;;;;;;;7.68;2.53;;;;;;;;;;5054475;28;20507;-62
2022/10/10 06:35:47;;;;;;;7.28;2.63;;;;;;;;;;5070342;28;20152;-63
2022/10/10 06:38:18;;;;;;;10.70;2.95;;;;;;;;;;5054270;28;20049;-63
2022/10/10 06:40:48;;;;;;;6.47;2.90;;;;;;;;;;5070775;28;20059;-64
2022/10/10 06:43:17;;;;;;;5.10;2.35;;;;;;;;;;5017812;28;20493;-64
2022/10/10 06:45:50;;;;;;;6.82;2.22;;;;;;;;;;5010710;28;20042;-64
2022/10/10 06:48:21;;;;;;;6.43;2.30;;;;;;;;;;4990743;28;20526;-64
2022/10/10 06:51:03;;;;;;;4.13;2.03;;;;;;;;;;4991439;28;20534;-64
2022/10/10 06:53:34;;;;;;;3.50;1.73;;;;;;;;;;4991210;28;20085;-64
2022/10/10 06:56:05;;;;;;;5.20;1.80;;;;;;;;;;4991052;28;20054;-64
2022/10/10 06:58:35;;;;;;;4.25;1.80;;;;;;;;;;4990961;28;20166;-64
2022/10/10 07:01:05;;;;;;;3.72;2.00;;;;;;;;;;4974833;28;20061;-65
2022/10/10 07:03:35;;;;;;;4.90;2.30;;;;;;;;;;4935892;28;20055;-63
2022/10/10 07:06:09;;;;;;;5.35;2.35;;;;;;;;;;4906198;29;20500;-64
2022/10/10 07:08:41;;;;;;;6.88;3.17;;;;;;;;;;4898263;29;20421;-63
2022/10/10 07:11:11;;;;;;;7.93;3.50;;;;;;;;;;4913764;29;20060;-64
2022/10/10 07:13:41;;;;;;;8.55;3.78;;;;;;;;;;4898833;29;20182;-63
2022/10/10 07:16:11;;;;;;;6.75;3.72;;;;;;;;;;4882494;29;20056;-63
2022/10/10 07:18:40;;;;;;;6.55;2.83;;;;;;;;;;4913926;29;20064;-64
2022/10/10 07:21:11;;;;;;;5.78;2.05;;;;;;;;;;4937021;29;20531;-63
2022/10/10 07:23:41;;;;;;;5.72;1.98;;;;;;;;;;4926979;28;20166;-64
2022/10/10 07:26:14;;;;;;;5.65;3.15;;;;;;;;;;4982226;28;20049;-63
2022/10/10 07:28:44;;;;;;;5.15;2.22;;;;;;;;;;4958163;28;20061;-63
2022/10/10 07:31:14;;;;;;;5.80;2.75;;;;;;;;;;4990417;28;20059;-62
2022/10/10 07:33:47;;;;;;;4.53;2.42;;;;;;;;;;4990592;28;20130;-63
2022/10/10 07:36:19;;;;;;;4.30;2.33;;;;;;;;;;4990421;28;20046;-63
2022/10/10 07:38:53;;;;;;;4.22;2.25;;;;;;;;;;4974269;28;20058;-63
2022/10/10 07:41:24;;;;;;;4.05;2.13;;;;;;;;;;4993981;28;20069;-63
2022/10/10 07:43:55;;;;;;;4.78;2.63;;;;;;;;;;5010104;28;20116;-63
2022/10/10 07:46:25;;;;;;;4.90;2.22;;;;;;;;;;5010196;28;20058;-63
2022/10/10 07:48:56;;;;;;;2.33;1.33;;;;;;;;;;4977583;28;20049;-63
2022/10/10 07:51:26;;;;;;;1.83;1.05;;;;;;;;;;5009964;28;20066;-62
2022/10/10 07:53:57;;;;;;;2.53;1.33;;;;;;;;;;5009991;28;20049;-64
2022/10/10 07:56:27;;;;;;;2.60;1.52;;;;;;;;;;5009882;28;20640;-64
2022/10/10 07:58:57;;;;;;;4.97;1.63;;;;;;;;;;5009685;28;20050;-65
2022/10/10 08:01:27;;;;;;;3.42;1.75;;;;;;;;;;4977267;28;20069;-65
2022/10/10 08:03:57;;;;;;;3.33;1.65;;;;;;;;;;5015824;28;20064;-64
2022/10/10 08:06:27;;;;;;;3.22;1.40;;;;;;;;;;5016494;28;20563;-64
2022/10/10 08:08:57;;;;;;;2.92;1.40;;;;;;;;;;5049443;28;20477;-64
2022/10/10 08:11:26;;;;;;;2.88;1.25;;;;;;;;;;5052267;28;20068;-65
2022/10/10 08:13:57;;;;;;;4.05;1.30;;;;;;;;;;5089519;28;20048;-65
2022/10/10 08:16:27;;;;;;;3.28;1.40;;;;;;;;;;5090332;28;20055;-64
2022/10/10 08:18:57;;;;;;;3.15;1.48;;;;;;;;;;5093552;28;20059;-64
2022/10/10 08:21:27;;;;;;;2.75;1.50;;;;;;;;;;5060485;28;20051;-65
2022/10/10 08:23:57;;;;;;;4.40;1.85;;;;;;;;;;5093359;28;20455;-65
2022/10/10 08:26:26;;;;;;;4.72;2.40;;;;;;;;;;5072939;28;20106;-65
2022/10/10 08:28:56;;;;;;;4.35;1.98;;;;;;;;;;5072847;28;20060;-65
2022/10/10 08:31:27;;;;;;;4.35;1.98;;;;;;;;;;5056811;28;20048;-64
2022/10/10 08:33:57;;;;;;;4.30;1.90;;;;;;;;;;5073093;28;20048;-64
2022/10/10 08:36:27;;;;;;;5.22;2.10;;;;;;;;;;5063918;28;20617;-64
2022/10/10 08:38:59;;;;;;;4.85;2.22;;;;;;;;;;5052712;28;20045;-64
2022/10/10 08:41:53;;;;;;;3.60;1.80;;;;;;;;;;5052891;28;20049;-64
2022/10/10 08:44:47;;;;;;;2.67;1.40;;;;;;;;;;5052808;28;20064;-63
2022/10/10 08:47:28;;;;;;;2.67;1.27;;;;;;;;;;5052915;28;20493;-63
2022/10/10 08:50:06;;;;;;;3.13;1.55;;;;;;;;;;5036702;28;20535;-63
2022/10/10 08:52:49;;;;;;;4.88;2.10;;;;;;;;;;5071019;28;20052;-63
2022/10/10 08:55:32;;;;;;;6.80;1.92;;;;;;;;;;5072769;28;20071;-63
2022/10/10 08:58:11;;;;;;;3.17;1.60;;;;;;;;;;5039225;28;20056;-63
2022/10/10 09:01:07;;;;;;;3.92;2.00;;;;;;;;;;5055791;28;20044;-63
2022/10/10 09:03:49;;;;;;;2.60;1.60;;;;;;;;;;5008899;28;20083;-63
2022/10/10 09:06:25;;;;;;;4.00;1.85;;;;;;;;;;5019312;28;20053;-64
2022/10/10 09:09:10;;;;;;;5.22;1.58;;;;;;;;;;5052648;28;20084;-64
2022/10/10 09:12:01;;;;;;;3.50;1.15;;;;;;;;;;4980228;28;20069;-64
2022/10/10 09:14:52;;;;;;;4.05;1.52;;;;;;;;;;4995855;28;20061;-64
2022/10/10 09:17:37;;;;;;;2.50;1.38;;;;;;;;;;5012536;28;20086;-64
2022/10/10 09:20:34;;;;;;;5.38;1.40;;;;;;;;;;5012485;28;20057;-64
2022/10/10 09:23:20;;;;;;;3.47;1.65;;;;;;;;;;4995797;28;20525;-64
2022/10/10 09:26:11;;;;;;;2.50;1.15;;;;;;;;;;4980232;28;20057;-63
2022/10/10 09:28:53;;;;;;;2.50;1.15;;;;;;;;;;4979350;28;20506;-63
2022/10/10 09:31:45;;;;;;;1.92;0.93;;;;;;;;;;5012690;28;20061;-63
2022/10/10 09:34:37;;;;;;;1.27;0.80;;;;;;;;;;5012247;28;20561;-63
2022/10/10 09:37:16;;;;;;;2.33;0.90;;;;;;;;;;5012078;28;20054;-63
2022/10/10 09:40:37;;;;;;;2.60;1.45;;;;;;;;;;5024867;28;20075;-63
2022/10/10 09:43:31;;;;;;;2.00;0.95;;;;;;;;;;5051681;28;20064;-64
2022/10/10 09:46:01;;;;;;;2.40;0.88;;;;;;;;;;5002205;28;20056;-63
2022/10/10 09:48:35;;;;;;;1.80;0.82;;;;;;;;;;5022382;28;20059;-64
2022/10/10 09:51:16;;;;;;;3.90;1.50;;;;;;;;;;5071736;28;20570;-63
2022/10/10 09:53:48;;;;;;;1.55;0.90;;;;;;;;;;5051278;28;20176;-65
2022/10/10 09:56:43;;;;;;;4.03;1.92;;;;;;;;;;5051473;28;20064;-63
2022/10/10 09:59:37;;;;;;;2.35;1.25;;;;;;;;;;5051309;28;20060;-63
2022/10/10 10:02:23;;;;;;;1.85;0.98;;;;;;;;;;5001920;28;20052;-62
2022/10/10 10:04:54;;;;;;;2.08;1.25;;;;;;;;;;5051360;28;20069;-63
2022/10/10 10:07:33;;;;;;;2.88;1.00;;;;;;;;;;5051237;28;20057;-63
2022/10/10 10:10:19;;;;;;;2.92;1.45;;;;;;;;;;5051156;28;20048;-63
2022/10/10 10:12:51;;;;;;;3.60;1.35;;;;;;;;;;5051289;28;20404;-63
2022/10/10 10:15:30;;;;;;;2.47;1.25;;;;;;;;;;5051132;28;20041;-63
2022/10/10 10:18:10;;;;;;;3.38;2.10;;;;;;;;;;5050997;28;20404;-64
2022/10/10 10:20:45;;;;;;;2.47;1.27;;;;;;;;;;5018255;28;20049;-63
2022/10/10 10:23:40;;;;;;;3.55;1.60;;;;;;;;;;5050882;28;20049;-64
2022/10/10 10:26:23;;;;;;;3.88;1.25;;;;;;;;;;5061190;28;20059;-62
2022/10/10 10:28:54;;;;;;;4.40;1.73;;;;;;;;;;5054242;28;20527;-63
2022/10/10 10:32:05;;;;;;;3.92;1.48;;;;;;;;;;5070515;28;20048;-63
2022/10/10 10:34:41;;;;;;;4.03;1.75;;;;;;;;;;5030652;28;20057;-63
2022/10/10 10:37:17;;;;;;;3.67;1.75;;;;;;;;;;5043631;28;20568;-63
2022/10/10 10:40:16;;;;;;;5.00;2.53;;;;;;;;;;5029462;28;20041;-63
2022/10/10 10:43:10;;;;;;;6.45;3.22;;;;;;;;;;5030757;28;20053;-63
2022/10/10 10:45:59;;;;;;;4.90;2.45;;;;;;;;;;5030314;28;20086;-63
2022/10/10 10:48:39;;;;;;;3.38;1.70;;;;;;;;;;5014638;28;20045;-63
2022/10/10 10:51:24;;;;;;;3.72;1.60;;;;;;;;;;5030471;28;20061;-63
2022/10/10 10:54:05;;;;;;;;;;;;;;;;;;5030752;28;20076;-63
2022/10/10 10:56:51;;;;;;;5.57;2.80;;;;;;;;;;5030314;28;19925;-63
2022/10/10 10:59:39;;;;;;;5.72;2.60;;;;;;;;;;5030372;28;20642;-64
2022/10/10 11:03:03;;;;;;;5.93;2.03;;;;;;;;;;5030199;28;20042;-63
2022/10/10 11:06:14;;;;;;;4.85;1.52;;;;;;;;;;5030194;28;20042;-64
2022/10/10 11:08:48;;;;;;;5.88;1.70;;;;;;;;;;5013940;28;20069;-62
2022/10/10 11:11:24;;;;;;;3.50;1.35;;;;;;;;;;5064251;28;20428;-62
2022/10/10 11:14:20;;;;;;;2.85;1.45;;;;;;;;;;5090162;28;20056;-64
2022/10/10 11:17:13;;;;;;;4.68;2.20;;;;;;;;;;5078420;28;20048;-62
2022/10/10 11:19:55;;;;;;;3.38;1.63;;;;;;;;;;5077164;28;20059;-62
2022/10/10 11:22:35;;;;;;;4.82;2.45;;;;;;;;;;5112745;28;20510;-63
2022/10/10 11:25:41;;;;;;;5.38;2.38;;;;;;;;;;5069649;28;20067;-64
2022/10/10 11:28:20;;;;;;;3.63;1.42;;;;;;;;;;4974017;28;20380;-62
2022/10/10 11:30:58;;;;;;;5.05;2.40;;;;;;;;;;4942665;28;20054;-63
2022/10/10 11:33:39;;;;;;;3.30;1.67;;;;;;;;;;4990721;28;20061;-63
2022/10/10 11:36:22;;;;;;;2.97;1.20;;;;;;;;;;4990556;28;20059;-63
2022/10/10 11:39:04;;;;;;;3.28;2.17;;;;;;;;;;4974190;28;20413;-63
2022/10/10 11:42:07;;;;;;;4.88;1.52;;;;;;;;;;4990620;28;20061;-63
2022/10/10 11:44:44;;;;;;;7.72;3.25;;;;;;;;;;4957912;28;20090;-64
2022/10/10 11:47:27;;;;;;;4.07;1.58;;;;;;;;;;4990457;28;20050;-63
2022/10/10 11:50:08;;;;;;;4.00;1.60;;;;;;;;;;4990390;28;20531;-63
2022/10/10 11:52:54;;;;;;;5.90;1.63;;;;;;;;;;4962005;28;20054;-64
2022/10/10 11:55:44;;;;;;;3.40;1.55;;;;;;;;;;4961952;28;20371;-63
2022/10/10 11:58:37;;;;;;;3.90;1.70;;;;;;;;;;4994043;28;20055;-64
2022/10/10 12:01:49;;;;;;;4.25;1.63;;;;;;;;;;4955300;29;20055;-62
2022/10/10 12:04:22;;;;;;;4.95;2.38;;;;;;;;;;4973060;28;20042;-63
2022/10/10 12:06:56;;;;;;;7.38;3.28;;;;;;;;;;4980912;28;20061;-63
2022/10/10 12:09:38;;;;;;;9.25;2.92;;;;;;;;;;5013538;28;20061;-62
2022/10/10 12:12:25;;;;;;;4.15;1.85;;;;;;;;;;5013566;28;20046;-62
2022/10/10 12:15:01;;;;;;;3.13;1.70;;;;;;;;;;4999319;28;20050;-62
2022/10/10 12:17:41;;;;;;;4.18;2.00;;;;;;;;;;4980787;28;20060;-62
2022/10/10 12:20:14;;;;;;;6.93;3.00;;;;;;;;;;5013575;28;20160;-62
2022/10/10 12:22:45;;;;;;;4.80;2.08;;;;;;;;;;4942382;28;20415;-63
2022/10/10 12:25:49;;;;;;;5.90;2.53;;;;;;;;;;4942245;28;20055;-62
2022/10/10 12:28:28;;;;;;;8.10;4.03;;;;;;;;;;4890647;29;20057;-62
2022/10/10 12:31:07;;;;;;;9.13;5.20;;;;;;;;;;4878837;29;20529;-62
2022/10/10 12:33:37;;;;;;;3.38;1.80;;;;;;;;;;4879142;29;20065;-61
2022/10/10 12:36:19;;;;;;;4.95;1.88;;;;;;;;;;4878830;29;20084;-62
2022/10/10 12:39:09;;;;;;;4.18;1.98;;;;;;;;;;4918922;29;20408;-62
2022/10/10 12:41:42;;;;;;;3.75;1.48;;;;;;;;;;4988143;28;20417;-62
2022/10/10 12:44:21;;;;;;;2.72;1.30;;;;;;;;;;4996751;28;20069;-62
2022/10/10 12:47:13;;;;;;;7.20;2.15;;;;;;;;;;5013245;28;20629;-62
2022/10/10 12:49:59;;;;;;;3.35;1.73;;;;;;;;;;4996651;28;20161;-62
2022/10/10 12:52:48;;;;;;;7.88;3.42;;;;;;;;;;4980000;28;20053;-63
2022/10/10 12:55:28;;;;;;;4.05;2.55;;;;;;;;;;5012787;28;20057;-63
2022/10/10 12:58:02;;;;;;;4.15;1.85;;;;;;;;;;5012731;28;20061;-64
2022/10/10 13:00:41;;;;;;;7.80;3.10;;;;;;;;;;5012719;28;20054;-64
2022/10/10 13:03:26;;;;;;;2.42;1.20;;;;;;;;;;5028175;28;20065;-65
2022/10/10 13:06:04;;;;;;;5.18;1.45;;;;;;;;;;5092048;28;20062;-64
2022/10/10 13:08:36;;;;;;;7.10;3.22;;;;;;;;;;5079483;28;20059;-65
2022/10/10 13:11:12;;;;;;;8.07;4.63;;;;;;;;;;5051941;28;20515;-65
2022/10/10 13:13:54;;;;;;;18.00;8.43;;;;;;;;;;5052141;28;20049;-66
2022/10/10 13:16:27;;;;;;;9.90;5.18;;;;;;;;;;5002893;28;20512;-66
2022/10/10 13:19:01;;;;;;;9.88;4.20;;;;;;;;;;5052076;28;20052;-66
2022/10/10 13:21:34;;;;;;;11.40;5.45;;;;;;;;;;5052117;28;20453;-66
2022/10/10 13:24:06;;;;;;;9.25;4.47;;;;;;;;;;5051874;28;20053;-65
2022/10/10 13:26:42;;;;;;;17.15;7.00;;;;;;;;;;5002563;28;20053;-65
2022/10/10 13:29:30;;;;;;;9.85;4.30;;;;;;;;;;5051773;28;20060;-65
2022/10/10 13:32:08;;;;;;;9.02;5.05;;;;;;;;;;5051902;28;20049;-64
2022/10/10 13:34:45;;;;;;;12.40;5.25;;;;;;;;;;5052009;28;20045;-64
2022/10/10 13:37:17;;;;;;;5.13;2.22;;;;;;;;;;5051733;28;20428;-63
2022/10/10 13:39:49;;;;;;;7.13;2.83;;;;;;;;;;5051840;28;20049;-64
2022/10/10 13:42:30;;;;;;;9.27;5.07;;;;;;;;;;5035222;28;20471;-64
2022/10/10 13:45:04;;;;;;;9.38;4.88;;;;;;;;;;5051532;28;20417;-64
2022/10/10 13:47:53;;;;;;;6.32;3.13;;;;;;;;;;5053050;28;20053;-64
2022/10/10 13:50:29;;;;;;;4.75;2.28;;;;;;;;;;5114409;28;20048;-63
2022/10/10 13:53:43;;;;;;;6.40;2.63;;;;;;;;;;5114324;28;20050;-64
2022/10/10 13:56:19;;;;;;;7.68;4.43;;;;;;;;;;4982724;28;20049;-64
2022/10/10 13:59:00;;;;;;;6.72;3.80;;;;;;;;;;5031021;28;20061;-64
2022/10/10 14:01:33;;;;;;;10.55;5.22;;;;;;;;;;5031266;28;20076;-64
2022/10/10 14:04:15;;;;;;;8.75;4.15;;;;;;;;;;5031295;28;20069;-64
2022/10/10 14:06:58;;;;;;;14.32;5.78;;;;;;;;;;5031332;28;20091;-64
2022/10/10 14:09:36;;;;;;;9.63;5.15;;;;;;;;;;5047477;28;20057;-65
2022/10/10 14:12:30;;;;;;;5.20;2.40;;;;;;;;;;5030952;28;20054;-64
2022/10/10 14:15:03;;;;;;;5.15;2.30;;;;;;;;;;4972315;28;20059;-65
2022/10/10 14:17:34;;;;;;;6.50;3.08;;;;;;;;;;4956178;28;20054;-66
2022/10/10 14:20:08;;;;;;;10.00;4.32;;;;;;;;;;4972206;28;20158;-67
2022/10/10 14:22:38;;;;;;;6.88;3.67;;;;;;;;;;4972068;28;20054;-67
2022/10/10 14:25:10;;;;;;;12.00;6.68;;;;;;;;;;4972117;28;20058;-66
2022/10/10 14:27:40;;;;;;;7.80;2.70;;;;;;;;;;4987353;28;20494;-66
2022/10/10 14:30:14;;;;;;;6.78;3.55;;;;;;;;;;4975030;28;20046;-65
2022/10/10 14:32:44;;;;;;;3.08;1.40;;;;;;;;;;4975077;28;20062;-65
2022/10/10 14:35:15;;;;;;;3.30;1.75;;;;;;;;;;4991567;28;20050;-65
2022/10/10 14:37:45;;;;;;;6.03;3.53;;;;;;;;;;4997702;28;20490;-65
2022/10/10 14:40:21;;;;;;;2.20;0.90;;;;;;;;;;5030839;28;20060;-64
2022/10/10 14:42:51;;;;;;;2.10;0.80;;;;;;;;;;5030731;28;20064;-64
2022/10/10 14:45:21;;;;;;;1.30;0.70;;;;;;;;;;5030536;28;20065;-63
2022/10/10 14:47:51;;;;;;;1.10;0.70;;;;;;;;;;4997723;28;20084;-63
2022/10/10 14:50:26;;;;;;;3.20;1.33;;;;;;;;;;4996378;28;20057;-63
2022/10/10 14:52:57;;;;;;;2.25;0.90;;;;;;;;;;5102061;28;20066;-64
2022/10/10 14:55:27;;;;;;;1.75;0.70;;;;;;;;;;5095386;28;20055;-64
2022/10/10 14:57:57;;;;;;;1.65;0.73;;;;;;;;;;5077098;28;20498;-64
2022/10/10 15:00:28;;;;;;;2.30;0.80;;;;;;;;;;5113401;28;20051;-64
2022/10/10 15:02:58;;;;;;;2.95;0.88;;;;;;;;;;5113014;28;20044;-63
2022/10/10 15:05:27;;;;;;;3.67;1.80;;;;;;;;;;5090141;28;20459;-63
2022/10/10 15:07:57;;;;;;;1.73;0.63;;;;;;;;;;5090254;28;20499;-65
2022/10/10 15:10:27;;;;;;;2.25;1.02;;;;;;;;;;5057179;28;20408;-63
2022/10/10 15:13:02;;;;;;;1.75;0.55;;;;;;;;;;5090244;28;20055;-63
2022/10/10 15:15:33;;;;;;;13.57;3.67;;;;;;;;;;5090309;28;20059;-63
2022/10/10 15:18:04;;;;;;;2.60;0.80;;;;;;;;;;5073045;28;20047;-63
2022/10/10 15:20:54;;;;;;;4.22;1.25;;;;;;;;;;5090418;28;20044;-63
2022/10/10 15:23:25;;;;;;;1.63;0.50;;;;;;;;;;5090299;28;20060;-63
2022/10/10 15:25:59;;;;;;;2.55;0.63;;;;;;;;;;5040610;28;20048;-65
2022/10/10 15:28:30;;;;;;;3.50;0.90;;;;;;;;;;5055990;28;20051;-65
2022/10/10 15:31:00;;;;;;;2.40;0.98;;;;;;;;;;5056235;28;20067;-65
2022/10/10 15:33:31;;;;;;;1.95;0.40;;;;;;;;;;5023249;28;20044;-64
2022/10/10 15:36:04;;;;;;;0.63;0.32;;;;;;;;;;5089934;28;20060;-65
2022/10/10 15:38:41;;;;;;;2.55;0.60;;;;;;;;;;5029348;28;20053;-63